createdAt,value
2018-11-25T00:01:16.481Z,99356.42
2018-11-25T00:03:44.197Z,99356.79
2018-11-25T00:06:11.453Z,99359.34
2018-11-25T00:08:38.725Z,99361.39
2018-11-25T00:11:06.361Z,99355.63
2018-11-25T00:13:33.615Z,99353.39
2018-11-25T00:16:01.862Z,99362.98
2018-11-25T00:18:29.590Z,99351.48
2018-11-25T00:20:56.859Z,99361.09
2018-11-25T00:23:25.290Z,99355.35
2018-11-25T00:25:53.104Z,99355.35
2018-11-25T00:28:20.384Z,99351.64
2018-11-25T00:30:47.654Z,99345.91
2018-11-25T00:33:16.664Z,99347.95
2018-11-25T00:35:43.945Z,99347.95
2018-11-25T00:38:11.222Z,99339.09
2018-11-25T00:40:38.909Z,99339.95
2018-11-25T00:43:06.171Z,99343.81
2018-11-25T00:45:33.480Z,99343.33
2018-11-25T00:48:01.084Z,99338.91
2018-11-25T00:50:28.345Z,99345.02
2018-11-25T00:52:55.621Z,99347.55
2018-11-25T00:55:22.877Z,99348.97
2018-11-25T00:57:50.156Z,99348.97
2018-11-25T01:00:17.879Z,99348.14
2018-11-25T01:02:45.177Z,99351.23
2018-11-25T01:05:12.452Z,99349.19
2018-11-25T01:07:40.050Z,99362.38
2018-11-25T01:10:07.323Z,99358.88
2018-11-25T01:12:34.600Z,99351.91
2018-11-25T01:15:02.222Z,99357.31
2018-11-25T01:17:29.485Z,99359.95
2018-11-25T01:19:56.741Z,99362.59
2018-11-25T01:22:23.996Z,99362.19
2018-11-25T01:24:51.256Z,99360.50
2018-11-25T01:27:19.488Z,99362.77
2018-11-25T01:29:46.761Z,99366.81
2018-11-25T01:32:14.061Z,99366.36
2018-11-25T01:34:41.346Z,99367.68
2018-11-25T01:37:08.897Z,99366.94
2018-11-25T01:39:36.170Z,99366.94
2018-11-25T01:42:03.448Z,99367.89
2018-11-25T01:44:31.071Z,99362.34
2018-11-25T01:46:58.368Z,99355.84
2018-11-25T01:49:25.621Z,99359.06
2018-11-25T01:51:53.221Z,99363.97
2018-11-25T01:54:20.483Z,99357.92
2018-11-25T01:56:47.745Z,99359.23
2018-11-25T01:59:15.401Z,99359.83
2018-11-25T02:01:42.720Z,99355.50
2018-11-25T02:04:09.982Z,99364.45
2018-11-25T02:06:37.568Z,99372.08
2018-11-25T02:09:04.930Z,99370.39
2018-11-25T02:11:32.205Z,99368.34
2018-11-25T02:13:59.957Z,99368.42
2018-11-25T02:16:27.241Z,99369.88
2018-11-25T02:18:54.499Z,99362.05
2018-11-25T02:21:22.115Z,99365.52
2018-11-25T02:23:49.398Z,99364.77
2018-11-25T02:26:16.654Z,99361.86
2018-11-25T02:28:44.261Z,99358.02
2018-11-25T02:31:11.511Z,99360.84
2018-11-25T02:33:38.773Z,99357.47
2018-11-25T02:36:06.442Z,99356.36
2018-11-25T02:38:33.705Z,99359.54
2018-11-25T02:41:00.995Z,99354.48
2018-11-25T02:43:28.604Z,99355.80
2018-11-25T02:45:55.875Z,99359.02
2018-11-25T02:48:23.157Z,99356.01
2018-11-25T02:50:51.699Z,99360.05
2018-11-25T02:53:18.976Z,99361.00
2018-11-25T02:55:46.261Z,99355.36
2018-11-25T02:58:13.609Z,99356.27
2018-11-25T03:00:42.026Z,99358.45
2018-11-25T03:03:09.314Z,99360.23
2018-11-25T03:05:37.078Z,99359.86
2018-11-25T03:08:04.368Z,99361.17
2018-11-25T03:10:31.630Z,99365.12
2018-11-25T03:13:02.486Z,99362.03
2018-11-25T03:15:29.749Z,99361.55
2018-11-25T03:17:57.009Z,99368.53
2018-11-25T03:20:24.805Z,99361.95
2018-11-25T03:22:52.076Z,99361.00
2018-11-25T03:25:19.383Z,99363.14
2018-11-25T03:27:47.132Z,99367.47
2018-11-25T03:30:14.432Z,99361.83
2018-11-25T03:32:41.713Z,99371.05
2018-11-25T03:35:09.281Z,99362.41
2018-11-25T03:37:36.537Z,99359.77
2018-11-25T03:40:03.789Z,99365.41
2018-11-25T03:42:31.057Z,99357.50
2018-11-25T03:44:58.366Z,99354.87
2018-11-25T03:47:25.606Z,99351.77
2018-11-25T03:49:53.678Z,99357.99
2018-11-25T03:52:20.931Z,99351.00
2018-11-25T03:54:48.188Z,99356.39
2018-11-25T03:57:15.492Z,99357.22
2018-11-25T03:59:42.827Z,99357.59
2018-11-25T04:02:10.087Z,99359.03
2018-11-25T04:04:37.337Z,99364.76
2018-11-25T04:07:04.580Z,99372.75
2018-11-25T04:09:31.850Z,99372.30
2018-11-25T04:11:59.109Z,99361.66
2018-11-25T04:14:26.372Z,99370.31
2018-11-25T04:16:53.629Z,99363.14
2018-11-25T04:19:20.880Z,99365.23
2018-11-25T04:21:48.134Z,99360.78
2018-11-25T04:24:15.413Z,99358.64
2018-11-25T04:26:42.673Z,99360.78
2018-11-25T04:29:09.944Z,99362.59
2018-11-25T04:31:37.519Z,99364.16
2018-11-25T04:34:04.771Z,99366.25
2018-11-25T04:36:32.019Z,99363.62
2018-11-25T04:38:59.317Z,99363.62
2018-11-25T04:41:26.564Z,99367.57
2018-11-25T04:43:53.823Z,99362.84
2018-11-25T04:46:21.092Z,99366.92
2018-11-25T04:48:48.345Z,99368.33
2018-11-25T04:51:15.595Z,99372.19
2018-11-25T04:53:42.858Z,99374.83
2018-11-25T04:56:10.123Z,99376.60
2018-11-25T04:58:37.421Z,99372.73
2018-11-25T05:01:04.972Z,99376.69
2018-11-25T05:03:32.225Z,99378.78
2018-11-25T05:05:59.477Z,99375.77
2018-11-25T05:08:26.733Z,99374.83
2018-11-25T05:10:53.995Z,99368.23
2018-11-25T05:13:21.250Z,99368.61
2018-11-25T05:15:48.884Z,99369.34
2018-11-25T05:18:16.133Z,99364.94
2018-11-25T05:20:43.393Z,99365.48
2018-11-25T05:23:10.673Z,99370.30
2018-11-25T05:25:37.949Z,99369.92
2018-11-25T05:28:05.257Z,99369.55
2018-11-25T05:30:32.563Z,99368.78
2018-11-25T05:32:59.844Z,99367.87
2018-11-25T05:35:27.129Z,99372.73
2018-11-25T05:37:54.407Z,99373.14
2018-11-25T05:40:21.653Z,99375.77
2018-11-25T05:42:48.924Z,99376.69
2018-11-25T05:45:16.177Z,99381.78
2018-11-25T05:47:43.460Z,99378.66
2018-11-25T05:50:10.724Z,99376.02
2018-11-25T05:52:37.965Z,99374.61
2018-11-25T05:55:05.276Z,99369.34
2018-11-25T05:57:32.516Z,99370.66
2018-11-25T05:59:59.773Z,99371.61
2018-11-25T06:02:27.051Z,99364.66
2018-11-25T06:04:54.297Z,99368.69
2018-11-25T06:07:21.559Z,99367.38
2018-11-25T06:09:49.617Z,99373.14
2018-11-25T06:12:16.863Z,99367.38
2018-11-25T06:14:44.163Z,99373.14
2018-11-25T06:17:11.397Z,99365.97
2018-11-25T06:19:38.652Z,99368.98
2018-11-25T06:22:06.329Z,99370.66
2018-11-25T06:24:33.596Z,99365.39
2018-11-25T06:27:00.861Z,99373.30
2018-11-25T06:29:28.144Z,99370.66
2018-11-25T06:31:55.413Z,99365.02
2018-11-25T06:34:22.667Z,99373.30
2018-11-25T06:36:49.923Z,99369.34
2018-11-25T06:39:17.176Z,99369.92
2018-11-25T06:41:44.437Z,99366.42
2018-11-25T06:44:11.725Z,99370.88
2018-11-25T06:46:39.640Z,99366.92
2018-11-25T06:49:06.895Z,99370.38
2018-11-25T06:51:34.177Z,99378.78
2018-11-25T06:54:01.523Z,99383.68
2018-11-25T06:56:28.779Z,99385.91
2018-11-25T06:58:56.396Z,99388.17
2018-11-25T07:01:23.661Z,99390.07
2018-11-25T07:03:51.002Z,99396.20
2018-11-25T07:06:18.816Z,99403.70
2018-11-25T07:08:46.054Z,99401.07
2018-11-25T07:11:13.313Z,99404.11
2018-11-25T07:13:40.580Z,99407.20
2018-11-25T07:16:07.857Z,99409.84
2018-11-25T07:18:35.120Z,99405.97
2018-11-25T07:21:02.417Z,99405.88
2018-11-25T07:23:29.668Z,99403.25
2018-11-25T07:25:56.929Z,99409.62
2018-11-25T07:28:24.209Z,99404.27
2018-11-25T07:30:51.441Z,99404.27
2018-11-25T07:33:18.693Z,99405.13
2018-11-25T07:35:45.944Z,99406.45
2018-11-25T07:38:13.219Z,99405.13
2018-11-25T07:40:40.464Z,99406.08
2018-11-25T07:43:07.717Z,99401.18
2018-11-25T07:45:34.991Z,99406.53
2018-11-25T07:48:02.263Z,99402.12
2018-11-25T07:50:29.558Z,99396.86
2018-11-25T07:52:56.894Z,99396.28
2018-11-25T07:55:24.185Z,99398.25
2018-11-25T07:57:51.551Z,99399.84
2018-11-25T08:00:19.348Z,99404.91
2018-11-25T08:02:46.639Z,99400.88
2018-11-25T08:05:14.236Z,99397.16
2018-11-25T08:07:45.182Z,99396.70
2018-11-25T08:10:12.455Z,99402.84
2018-11-25T08:12:40.084Z,99395.39
2018-11-25T08:15:07.360Z,99388.80
2018-11-25T08:17:34.613Z,99392.84
2018-11-25T08:20:01.912Z,99389.47
2018-11-25T08:22:29.171Z,99394.83
2018-11-25T08:24:56.423Z,99395.31
2018-11-25T08:27:23.964Z,99393.05
2018-11-25T08:29:51.238Z,99392.47
2018-11-25T08:32:18.525Z,99398.97
2018-11-25T08:34:46.196Z,99400.30
2018-11-25T08:37:13.461Z,99402.07
2018-11-25T08:39:40.718Z,99405.84
2018-11-25T08:42:08.330Z,99407.53
2018-11-25T08:44:35.616Z,99407.91
2018-11-25T08:47:02.896Z,99403.95
2018-11-25T08:49:31.100Z,99399.14
2018-11-25T08:51:58.346Z,99398.59
2018-11-25T08:54:25.595Z,99392.83
2018-11-25T08:56:52.868Z,99387.92
2018-11-25T08:59:20.112Z,99389.64
2018-11-25T09:01:47.796Z,99383.30
2018-11-25T09:04:15.067Z,99384.07
2018-11-25T09:06:42.332Z,99379.53
2018-11-25T09:09:09.946Z,99382.73
2018-11-25T09:11:37.240Z,99376.02
2018-11-25T09:14:04.504Z,99380.73
2018-11-25T09:16:32.109Z,99384.11
2018-11-25T09:18:59.373Z,99384.20
2018-11-25T09:21:26.661Z,99387.70
2018-11-25T09:23:54.284Z,99388.80
2018-11-25T09:26:21.560Z,99387.86
2018-11-25T09:28:50.221Z,99384.64
2018-11-25T09:31:17.855Z,99376.27
2018-11-25T09:33:45.816Z,99382.77
2018-11-25T09:36:13.067Z,99382.77
2018-11-25T09:38:40.651Z,99384.91
2018-11-25T09:41:07.920Z,99394.05
2018-11-25T09:43:35.204Z,99392.73
2018-11-25T09:46:02.821Z,99393.59
2018-11-25T09:48:31.820Z,99390.47
2018-11-25T09:50:59.086Z,99395.74
2018-11-25T09:53:26.868Z,99391.20
2018-11-25T09:55:54.198Z,99390.84
2018-11-25T09:58:25.471Z,99396.11
2018-11-25T10:00:49.198Z,99397.43
2018-11-25T10:03:18.542Z,99395.66
2018-11-25T10:05:45.838Z,99396.48
2018-11-25T10:08:14.033Z,99394.24
2018-11-25T10:10:41.297Z,99390.28
2018-11-25T10:13:08.582Z,99388.84
2018-11-25T10:15:36.193Z,99381.05
2018-11-25T10:18:03.493Z,99381.52
2018-11-25T10:20:30.733Z,99384.06
2018-11-25T10:22:58.455Z,99384.15
2018-11-25T10:25:25.767Z,99385.01
2018-11-25T10:27:53.146Z,99377.19
2018-11-25T10:30:20.851Z,99380.93
2018-11-25T10:32:49.061Z,99379.98
2018-11-25T10:35:16.365Z,99376.02
2018-11-25T10:37:44.371Z,99370.66
2018-11-25T10:40:11.633Z,99372.25
2018-11-25T10:42:39.753Z,99374.80
2018-11-25T10:45:07.449Z,99369.89
2018-11-25T10:47:35.412Z,99366.39
2018-11-25T10:50:02.769Z,99366.30
2018-11-25T10:52:30.408Z,99363.30
2018-11-25T10:54:57.698Z,99360.28
2018-11-25T10:57:24.952Z,99356.42
2018-11-25T10:59:52.582Z,99355.56
2018-11-25T11:02:24.000Z,99357.38
2018-11-25T11:04:56.832Z,99356.64
2018-11-25T11:07:28.725Z,99361.42
2018-11-25T11:09:55.982Z,99355.78
2018-11-25T11:12:23.244Z,99358.88
2018-11-25T11:14:50.861Z,99359.37
2018-11-25T11:17:19.228Z,99357.56
2018-11-25T11:19:47.437Z,99352.41
2018-11-25T11:22:15.965Z,99353.72
2018-11-25T11:24:43.236Z,99356.73
2018-11-25T11:27:10.597Z,99358.42
2018-11-25T11:29:38.359Z,99354.00
2018-11-25T11:32:05.624Z,99357.95
2018-11-25T11:34:32.892Z,99355.41
2018-11-25T11:37:01.861Z,99351.45
2018-11-25T11:39:29.136Z,99351.45
2018-11-25T11:41:56.447Z,99348.81
2018-11-25T11:44:24.096Z,99352.19
2018-11-25T11:46:51.392Z,99353.87
2018-11-25T11:49:18.678Z,99363.48
2018-11-25T11:51:46.263Z,99362.16
2018-11-25T11:54:14.407Z,99360.97
2018-11-25T11:56:42.335Z,99361.79
2018-11-25T11:59:10.509Z,99362.16
2018-11-25T12:01:37.829Z,99366.48
2018-11-25T12:04:05.137Z,99365.16
2018-11-25T12:06:32.916Z,99363.84
2018-11-25T12:09:00.195Z,99356.42
2018-11-25T12:11:27.458Z,99355.01
2018-11-25T12:13:55.028Z,99358.56
2018-11-25T12:16:22.296Z,99356.33
2018-11-25T12:18:49.551Z,99355.38
2018-11-25T12:21:17.563Z,99348.78
2018-11-25T12:23:44.843Z,99351.79
2018-11-25T12:26:12.133Z,99350.93
2018-11-25T12:28:39.798Z,99347.09
2018-11-25T12:31:07.157Z,99343.23
2018-11-25T12:33:34.409Z,99349.33
2018-11-25T12:36:02.135Z,99348.14
2018-11-25T12:38:29.409Z,99351.97
2018-11-25T12:40:56.667Z,99354.73
2018-11-25T12:43:26.549Z,99355.69
2018-11-25T12:45:53.809Z,99353.14
2018-11-25T12:48:21.069Z,99349.64
2018-11-25T12:50:49.602Z,99358.05
2018-11-25T12:53:17.720Z,99353.72
2018-11-25T12:55:45.021Z,99352.77
2018-11-25T12:58:13.369Z,99347.50
2018-11-25T13:00:40.653Z,99344.95
2018-11-25T13:03:08.836Z,99340.17
2018-11-25T13:05:36.584Z,99344.49
2018-11-25T13:08:04.771Z,99341.48
2018-11-25T13:10:32.897Z,99341.58
2018-11-25T13:13:02.197Z,99346.36
2018-11-25T13:15:29.457Z,99338.58
2018-11-25T13:17:56.752Z,99336.39
2018-11-25T13:20:24.349Z,99335.94
2018-11-25T13:22:53.643Z,99338.58
2018-11-25T13:25:22.133Z,99331.13
2018-11-25T13:27:49.409Z,99331.13
2018-11-25T13:30:17.417Z,99332.44
2018-11-25T13:32:45.301Z,99326.21
2018-11-25T13:35:12.570Z,99325.75
2018-11-25T13:37:39.808Z,99325.17
2018-11-25T13:40:07.511Z,99318.58
2018-11-25T13:42:34.798Z,99317.16
2018-11-25T13:45:03.285Z,99318.84
2018-11-25T13:47:31.689Z,99319.31
2018-11-25T13:49:58.978Z,99317.16
2018-11-25T13:52:26.273Z,99316.30
2018-11-25T13:54:53.869Z,99318.12
2018-11-25T13:57:21.996Z,99319.98
2018-11-25T13:59:49.333Z,99318.80
2018-11-25T14:02:17.930Z,99317.47
2018-11-25T14:04:45.261Z,99318.80
2018-11-25T14:07:12.545Z,99313.61
2018-11-25T14:09:40.255Z,99315.39
2018-11-25T14:12:07.559Z,99313.70
2018-11-25T14:14:34.819Z,99306.28
2018-11-25T14:17:02.820Z,99309.88
2018-11-25T14:19:30.090Z,99308.55
2018-11-25T14:21:57.376Z,99308.55
2018-11-25T14:24:25.912Z,99307.69
2018-11-25T14:26:53.244Z,99305.91
2018-11-25T14:29:20.492Z,99307.23
2018-11-25T14:31:48.082Z,99299.78
2018-11-25T14:34:15.360Z,99303.64
2018-11-25T14:36:42.629Z,99311.56
2018-11-25T14:39:10.248Z,99304.10
2018-11-25T14:41:37.501Z,99309.38
2018-11-25T14:44:04.748Z,99303.28
2018-11-25T14:46:33.246Z,99296.28
2018-11-25T14:49:00.540Z,99297.73
2018-11-25T14:51:27.837Z,99298.55
2018-11-25T14:53:55.381Z,99304.05
2018-11-25T14:56:22.636Z,99308.95
2018-11-25T14:58:49.895Z,99303.31
2018-11-25T15:01:17.634Z,99302.45
2018-11-25T15:03:44.953Z,99302.95
2018-11-25T15:06:12.213Z,99307.45
2018-11-25T15:08:39.942Z,99304.81
2018-11-25T15:11:07.209Z,99313.22
2018-11-25T15:13:34.483Z,99310.67
2018-11-25T15:16:02.158Z,99320.85
2018-11-25T15:18:29.441Z,99309.45
2018-11-25T15:20:56.749Z,99311.62
2018-11-25T15:23:25.328Z,99310.89
2018-11-25T15:25:52.609Z,99310.48
2018-11-25T15:28:19.904Z,99313.13
2018-11-25T15:30:47.496Z,99312.75
2018-11-25T15:33:14.803Z,99318.03
2018-11-25T15:35:42.160Z,99311.93
2018-11-25T15:38:09.873Z,99305.80
2018-11-25T15:40:37.939Z,99304.02
2018-11-25T15:43:05.217Z,99304.02
2018-11-25T15:45:32.811Z,99303.16
2018-11-25T15:48:00.126Z,99297.16
2018-11-25T15:50:27.451Z,99293.28
2018-11-25T15:52:55.205Z,99300.37
2018-11-25T15:55:22.529Z,99300.37
2018-11-25T15:57:51.717Z,99303.01
2018-11-25T16:00:19.112Z,99299.05
2018-11-25T16:02:46.348Z,99291.14
2018-11-25T16:05:13.619Z,99289.24
2018-11-25T16:07:41.389Z,99283.60
2018-11-25T16:10:08.660Z,99286.61
2018-11-25T16:12:37.116Z,99289.61
2018-11-25T16:15:05.779Z,99290.10
2018-11-25T16:17:33.856Z,99288.78
2018-11-25T16:20:01.150Z,99294.52
2018-11-25T16:22:28.788Z,99294.05
2018-11-25T16:24:56.132Z,99297.16
2018-11-25T16:27:23.438Z,99295.38
2018-11-25T16:29:51.184Z,99296.20
2018-11-25T16:32:18.488Z,99302.42
2018-11-25T16:34:45.846Z,99304.60
2018-11-25T16:37:13.535Z,99305.80
2018-11-25T16:39:41.391Z,99295.25
2018-11-25T16:42:10.138Z,99292.98
2018-11-25T16:44:37.732Z,99295.62
2018-11-25T16:47:05.033Z,99293.34
2018-11-25T16:49:33.313Z,99292.89
2018-11-25T16:52:00.099Z,99292.03
2018-11-25T16:54:27.361Z,99288.48
2018-11-25T16:56:54.665Z,99281.88
2018-11-25T16:59:22.342Z,99284.52
2018-11-25T17:01:49.612Z,99287.16
2018-11-25T17:04:16.881Z,99287.52
2018-11-25T17:06:44.446Z,99283.20
2018-11-25T17:09:11.724Z,99280.81
2018-11-25T17:11:39.490Z,99282.62
2018-11-25T17:14:07.572Z,99289.21
2018-11-25T17:16:34.816Z,99285.72
2018-11-25T17:19:02.083Z,99279.98
2018-11-25T17:21:29.813Z,99279.13
2018-11-25T17:23:57.059Z,99274.70
2018-11-25T17:26:24.394Z,99276.03
2018-11-25T17:28:53.825Z,99279.13
2018-11-25T17:31:21.102Z,99287.03
2018-11-25T17:33:48.473Z,99282.80
2018-11-25T17:36:16.184Z,99281.30
2018-11-25T17:38:43.479Z,99283.35
2018-11-25T17:41:10.793Z,99285.98
2018-11-25T17:43:38.577Z,99283.35
2018-11-25T17:46:05.850Z,99289.76
2018-11-25T17:48:33.110Z,99291.08
2018-11-25T17:51:00.720Z,99295.86
2018-11-25T17:53:29.777Z,99293.50
2018-11-25T17:55:57.034Z,99294.45
2018-11-25T17:58:24.409Z,99297.09
2018-11-25T18:01:22.320Z,99295.19
2018-11-25T18:03:52.730Z,99295.92
2018-11-25T18:06:20.017Z,99296.28
2018-11-25T18:08:47.539Z,99297.05
2018-11-25T18:11:15.276Z,99294.41
2018-11-25T18:13:42.545Z,99307.60
2018-11-25T18:16:09.816Z,99311.06
2018-11-25T18:18:37.552Z,99306.65
2018-11-25T18:21:04.847Z,99311.92
2018-11-25T18:23:33.177Z,99315.30
2018-11-25T18:26:00.742Z,99314.34
2018-11-25T18:28:28.079Z,99312.08
2018-11-25T18:30:55.339Z,99313.39
2018-11-25T18:33:22.930Z,99312.08
2018-11-25T18:35:50.212Z,99313.88
2018-11-25T18:38:17.492Z,99307.20
2018-11-25T18:40:45.076Z,99309.84
2018-11-25T18:43:12.332Z,99305.39
2018-11-25T18:45:39.587Z,99305.30
2018-11-25T18:48:07.234Z,99305.30
2018-11-25T18:50:35.462Z,99305.30
2018-11-25T18:53:02.801Z,99307.84
2018-11-25T18:55:30.466Z,99309.62
2018-11-25T18:57:57.758Z,99307.84
2018-11-25T19:00:25.054Z,99302.07
2018-11-25T19:02:52.810Z,99309.39
2018-11-25T19:05:20.815Z,99305.44
2018-11-25T19:07:48.071Z,99309.39
2018-11-25T19:10:18.695Z,99311.58
2018-11-25T19:12:45.977Z,99311.94
2018-11-25T19:15:14.186Z,99312.31
2018-11-25T19:17:41.852Z,99312.80
2018-11-25T19:20:09.153Z,99317.95
2018-11-25T19:22:36.423Z,99317.00
2018-11-25T19:25:04.010Z,99311.72
2018-11-25T19:27:31.265Z,99309.85
2018-11-25T19:29:59.295Z,99305.77
2018-11-25T19:32:27.029Z,99304.84
2018-11-25T19:34:54.297Z,99304.84
2018-11-25T19:37:21.551Z,99307.36
2018-11-25T19:39:49.165Z,99308.22
2018-11-25T19:42:16.415Z,99307.63
2018-11-25T19:44:43.678Z,99301.41
2018-11-25T19:47:11.750Z,99296.62
2018-11-25T19:49:39.918Z,99296.49
2018-11-25T19:52:07.186Z,99295.17
2018-11-25T19:54:34.918Z,99284.98
2018-11-25T19:57:02.196Z,99285.94
2018-11-25T19:59:29.490Z,99292.44
2018-11-25T20:01:57.119Z,99288.02
2018-11-25T20:04:24.381Z,99294.98
2018-11-25T20:06:52.477Z,99291.48
2018-11-25T20:09:20.105Z,99289.21
2018-11-25T20:11:47.385Z,99291.75
2018-11-25T20:14:14.649Z,99291.30
2018-11-25T20:16:47.355Z,99284.20
2018-11-25T20:19:14.613Z,99280.61
2018-11-25T20:21:46.973Z,99294.17
2018-11-25T20:24:14.705Z,99283.61
2018-11-25T20:26:46.507Z,99282.30
2018-11-25T20:29:13.790Z,99271.38
2018-11-25T20:31:41.561Z,99271.88
2018-11-25T20:34:09.725Z,99273.55
2018-11-25T20:36:37.022Z,99268.73
2018-11-25T20:39:09.897Z,99266.23
2018-11-25T20:41:38.456Z,99274.51
2018-11-25T20:44:05.814Z,99277.61
2018-11-25T20:46:38.716Z,99272.69
2018-11-25T20:49:05.956Z,99272.69
2018-11-25T20:51:38.357Z,99263.00
2018-11-25T20:54:06.101Z,99270.91
2018-11-25T20:56:33.364Z,99274.88
2018-11-25T20:59:01.353Z,99273.92
2018-11-25T21:01:28.619Z,99270.81
2018-11-25T21:03:56.586Z,99269.86
2018-11-25T21:06:23.839Z,99268.91
2018-11-25T21:08:51.600Z,99263.63
2018-11-25T21:11:21.297Z,99267.59
2018-11-25T21:13:48.605Z,99260.50
2018-11-25T21:16:17.447Z,99263.50
2018-11-25T21:18:44.697Z,99256.45
2018-11-25T21:21:12.933Z,99259.45
2018-11-25T21:23:40.518Z,99259.81
2018-11-25T21:26:07.788Z,99263.77
2018-11-25T21:28:35.368Z,99263.31
2018-11-25T21:31:02.636Z,99267.64
2018-11-25T21:33:29.930Z,99269.81
2018-11-25T21:35:57.188Z,99269.69
2018-11-25T21:38:24.775Z,99270.55
2018-11-25T21:40:53.066Z,99268.63
2018-11-25T21:43:20.353Z,99263.36
2018-11-25T21:45:47.616Z,99264.67
2018-11-25T21:48:15.218Z,99268.05
2018-11-25T21:50:42.497Z,99269.86
2018-11-25T21:53:09.761Z,99268.44
2018-11-25T21:55:37.456Z,99270.69
2018-11-25T21:58:04.705Z,99273.32
2018-11-25T22:00:32.009Z,99277.09
2018-11-25T22:03:00.479Z,99269.17
2018-11-25T22:05:27.735Z,99273.50
2018-11-25T22:07:55.083Z,99267.26
2018-11-25T22:10:22.835Z,99266.40
2018-11-25T22:12:50.249Z,99262.84
2018-11-25T22:15:17.533Z,99264.16
2018-11-25T22:17:44.785Z,99263.20
2018-11-25T22:20:12.464Z,99261.88
2018-11-25T22:22:39.701Z,99268.84
2018-11-25T22:25:07.649Z,99266.58
2018-11-25T22:27:34.892Z,99269.21
2018-11-25T22:30:02.186Z,99278.91
2018-11-25T22:32:29.449Z,99278.55
2018-11-25T22:34:56.702Z,99286.00
2018-11-25T22:37:24.892Z,99287.33
2018-11-25T22:39:52.164Z,99283.46
2018-11-25T22:42:19.453Z,99290.80
2018-11-25T22:44:46.739Z,99289.97
2018-11-25T22:47:14.425Z,99294.88
2018-11-25T22:49:41.667Z,99306.76
2018-11-25T22:52:08.955Z,99300.16
2018-11-25T22:54:36.223Z,99299.67
2018-11-25T22:57:03.837Z,99305.08
2018-11-25T22:59:31.109Z,99301.94
2018-11-25T23:01:58.429Z,99305.08
2018-11-25T23:04:26.091Z,99305.08
2018-11-25T23:06:53.341Z,99301.94
2018-11-25T23:09:20.627Z,99307.72
2018-11-25T23:11:49.748Z,99308.08
2018-11-25T23:14:17.346Z,99297.52
2018-11-25T23:16:44.596Z,99302.67
2018-11-25T23:19:11.836Z,99301.35
2018-11-25T23:21:39.123Z,99304.39
2018-11-25T23:24:06.764Z,99301.75
2018-11-25T23:26:34.828Z,99302.48
2018-11-25T23:29:02.122Z,99302.94
2018-11-25T23:31:29.404Z,99305.12
2018-11-25T23:33:56.997Z,99306.44
2018-11-25T23:36:24.260Z,99298.03
2018-11-25T23:38:51.501Z,99293.23
2018-11-25T23:41:20.608Z,99292.87
2018-11-25T23:43:48.244Z,99292.52
2018-11-25T23:46:17.033Z,99299.11
2018-11-25T23:48:44.303Z,99307.48
2018-11-25T23:51:12.572Z,99307.95
2018-11-25T23:53:40.786Z,99307.59
2018-11-25T23:56:08.021Z,99311.67
2018-11-25T23:58:35.265Z,99305.17
